Latest Weather Observations for Grove

IDT60801

Issued at 11:01 pm EST Sunday 5 July 2015 (issued every 30 minutes, with the page automatically refreshed every 10 minutes)

About weather observations | Map of weather stations | Latest weather observations for TAS | Other Formats
Station Details ID: 094220 Name: GROVE (RESEARCH STATION) Lat: -42.99 Lon: 147.07 Height: 65.0 m
Data from the previous 72 hours. | See also: Recent months at Grove
Date/Time
EST
Temp
°C
App
Temp
°C
Dew
Point
Rel
Hum
%
Delta-T
°C
Wind Press
QNH
hPa
Press
MSL
hPa
Rain
since 9 am
mm
Dir
 
Spd
km/h
Gust
km/h
Spd
kts
Gust
kts
05/11:00pm 6.0 4.8 4.6 91 0.6 CALM 0 7 0 4 - - 0.0
05/10:30pm 6.0 4.8 4.6 91 0.6 CALM 0 0 0 0 - - 0.0
05/10:00pm 6.0 3.7 4.6 91 0.6 WSW 6 6 3 3 - - 0.0
05/09:30pm 5.6 4.4 4.7 94 0.4 CALM 0 0 0 0 - - 0.0
05/09:00pm 5.5 4.3 4.8 95 0.3 CALM 0 0 0 0 - - 0.0
05/08:30pm 5.6 4.4 4.7 94 0.4 CALM 0 0 0 0 - - 0.0
05/08:00pm 5.5 4.3 4.8 95 0.3 CALM 0 0 0 0 - - 0.0
05/07:30pm 5.7 4.5 4.8 94 0.4 CALM 0 0 0 0 - - 0.0
05/07:00pm 5.7 3.4 4.8 94 0.4 NE 6 7 3 4 - - 0.0
05/06:30pm 5.9 3.6 4.7 92 0.5 NE 6 7 3 4 - - 0.0
05/06:00pm 6.0 3.7 4.6 91 0.6 NW 6 6 3 3 - - 0.0
05/05:30pm 6.1 4.9 4.5 89 0.7 CALM 0 0 0 0 - - 0.0
05/05:00pm 7.4 6.1 4.2 80 1.4 CALM 0 0 0 0 - - 0.0
05/04:30pm 8.1 6.9 4.5 78 1.6 CALM 0 0 0 0 - - 0.0
05/04:00pm 8.7 5.7 4.1 73 2.0 S 9 11 5 6 - - 0.0
05/03:30pm 9.6 7.6 4.4 70 2.3 NE 4 7 2 4 - - 0.0
05/03:00pm 9.4 7.0 4.5 71 2.2 NNE 6 9 3 5 - - 0.0
05/02:30pm 9.7 7.2 3.8 66 2.6 NE 6 7 3 4 - - 0.0
05/02:00pm 10.2 7.6 4.4 67 2.6 ENE 7 9 4 5 - - 0.0
05/01:30pm 9.3 8.1 4.6 72 2.1 CALM 0 0 0 0 - - 0.0
05/01:00pm 9.3 8.1 4.8 73 2.0 CALM 0 0 0 0 - - 0.0
05/12:30pm 8.7 7.6 5.1 78 1.6 CALM 0 0 0 0 - - 0.0
05/12:00pm 8.2 7.1 5.1 81 1.4 CALM 0 0 0 0 - - 0.0
05/11:30am 6.9 5.5 5.3 89 0.7 N 2 7 1 4 - - 0.0
05/11:00am 6.7 5.6 5.1 89 0.7 CALM 0 0 0 0 - - 0.0
05/10:30am 6.5 4.6 4.7 88 0.8 NNE 4 7 2 4 - - 0.0
05/10:00am 5.9 3.3 4.3 89 0.7 E 7 9 4 5 - - 0.0
05/09:30am 4.7 3.4 4.0 95 0.3 CALM 0 0 0 0 - - 0.0
05/09:00am 3.5 0.9 3.3 99 0.1 NE 6 6 3 3 - - 0.0
05/08:30am 2.7 -0.2 2.4 98 0.1 NE 7 7 4 4 - - 0.0
05/08:00am 2.1 -0.9 1.8 98 0.1 ENE 7 9 4 5 - - 0.0
05/07:30am 1.6 -0.2 1.3 98 0.1 CALM 0 0 0 0 - - 0.0
05/07:00am 1.1 -1.5 0.8 98 0.1 NNE 4 7 2 4 - - 0.0
05/06:30am 0.6 -2.4 0.6 100 0.0 NE 6 7 3 4 - - 0.0
05/06:00am 0.1 - - - - CALM 0 0 0 0 - - 0.0
05/05:30am 0.7 -1.3 0.2 96 0.2 CALM 0 0 0 0 - - 0.0
05/05:00am 1.2 -1.1 0.4 94 0.3 NE 2 7 1 4 - - 0.0
05/04:30am 1.5 -0.3 1.0 96 0.2 CALM 0 0 0 0 - - 0.0
05/04:00am 1.7 -0.8 1.4 98 0.1 NNE 4 7 2 4 - - 0.0
05/03:30am 2.4 -0.1 1.4 93 0.4 NNE 4 7 2 4 - - 0.0
05/03:00am 3.2 1.2 2.2 93 0.4 NNE 2 7 1 4 - - 0.0
05/02:30am 2.6 0.9 1.6 93 0.4 CALM 0 0 0 0 - - 0.0
05/02:00am 3.0 1.3 2.0 93 0.4 CALM 0 0 0 0 - - 0.0
05/01:30am 3.0 0.2 2.0 93 0.4 ENE 6 9 3 5 - - 0.0
05/01:00am 2.9 -0.1 1.9 93 0.4 ENE 7 9 4 5 - - 0.0
05/12:30am 2.7 -0.1 1.9 94 0.3 N 6 9 3 5 - - 0.0
05/12:00am 2.9 1.2 1.9 93 0.4 CALM 0 11 0 6 - - 0.0
 
Date/Time
EST
Temp
°C
App
Temp
°C
Dew
Point
Rel
Hum
%
Delta-T
°C
Wind Press
QNH
hPa
Press
MSL
hPa
Rain
since 9 am
mm
Dir
 
Spd
km/h
Gust
km/h
Spd
kts
Gust
kts
04/11:30pm 3.1 1.1 2.3 94 0.3 NNE 2 7 1 4 - - 0.0
04/11:00pm 2.9 0.1 2.1 94 0.3 NNE 6 9 3 5 - - 0.0
04/10:30pm 3.4 0.7 2.4 93 0.4 NE 6 7 3 4 - - 0.0
04/10:00pm 4.3 2.3 2.3 87 0.8 NE 2 7 1 4 - - 0.0
04/09:30pm 4.8 2.9 2.8 87 0.8 NNE 2 7 1 4 - - 0.0
04/09:00pm 5.3 2.5 3.1 86 0.9 ENE 7 9 4 5 - - 0.0
04/08:30pm 5.9 3.6 2.8 80 1.3 N 4 11 2 6 - - 0.0
04/08:00pm 6.6 5.0 2.5 75 1.7 CALM 0 0 0 0 - - 0.0
04/07:30pm 8.2 5.2 2.2 66 2.5 SSW 7 11 4 6 - - 0.0
04/07:00pm 9.5 4.7 0.0 51 3.8 SW 15 22 8 12 - - 0.0
04/06:30pm 8.7 5.7 1.1 59 3.1 NNE 6 9 3 5 - - 0.0
04/06:00pm 9.1 6.1 0.7 55 3.4 WSW 6 11 3 6 - - 0.0
04/05:30pm 9.1 5.4 0.1 53 3.6 WSW 9 20 5 11 - - 0.0
04/05:00pm 8.7 5.6 1.4 60 3.0 E 7 9 4 5 - - 0.0
04/04:30pm 9.5 6.6 1.6 58 3.3 WSW 6 17 3 9 - - 0.0
04/04:00pm 9.7 5.5 1.8 58 3.3 SW 13 19 7 10 - - 0.0
04/03:30pm 9.8 5.4 2.5 60 3.1 SW 15 28 8 15 - - 0.0
04/03:00pm 10.8 6.1 0.6 49 4.2 WSW 15 24 8 13 - - 0.0
04/02:30pm 10.8 5.1 0.3 48 4.3 W 20 30 11 16 - - 0.0
04/02:01pm 10.9 3.5 -0.5 45 4.6 W 28 46 15 25 - - 0.0
04/02:00pm 10.9 3.1 -0.9 44 4.7 W 30 46 16 25 - - 0.0
04/01:40pm 11.0 3.6 -0.7 44 4.7 WSW 28 46 15 25 - - 0.0
04/01:30pm 11.2 5.0 -0.1 45 4.6 WSW 22 35 12 19 - - 0.0
04/01:00pm 11.5 5.1 1.0 48 4.4 WSW 24 41 13 22 - - 0.0
04/12:30pm 12.3 7.5 2.4 51 4.3 SW 17 35 9 19 - - 0.0
04/12:00pm 12.3 7.4 1.8 48 4.5 W 17 30 9 16 - - 0.0
04/11:30am 11.6 7.6 2.6 54 3.9 SW 13 26 7 14 - - 0.0
04/11:00am 11.5 8.1 3.9 59 3.4 SW 11 17 6 9 - - 0.0
04/10:30am 11.0 8.1 4.6 64 2.9 S 9 17 5 9 - - 0.0
04/10:00am 11.3 7.8 3.6 59 3.4 SSW 11 20 6 11 - - 0.0
04/09:30am 11.3 8.2 5.5 67 2.7 S 11 20 6 11 - - 0.0
04/09:00am 9.0 7.1 7.7 91 0.6 NNE 7 9 4 5 - - 0.8
04/08:30am 8.7 6.9 7.9 95 0.4 ESE 7 9 4 5 - - 0.8
04/08:00am 8.8 7.0 8.0 95 0.4 NE 7 11 4 6 - - 0.8
04/07:30am 8.5 6.7 7.9 96 0.3 NNE 7 11 4 6 - - 0.8
04/07:00am 9.1 7.6 8.5 96 0.3 SSW 6 9 3 5 - - 0.8
04/06:30am 9.1 7.0 8.3 95 0.4 ENE 9 13 5 7 - - 0.6
04/06:00am 9.2 7.6 8.2 93 0.5 N 6 11 3 6 - - 0.6
04/05:30am 9.6 8.0 8.2 91 0.7 NNE 6 11 3 6 - - 0.4
04/05:00am 10.5 8.3 7.8 83 1.3 WSW 9 17 5 9 - - 0.4
04/04:30am 10.9 8.5 7.1 77 1.8 NNW 9 11 5 6 - - 0.2
04/04:00am 11.9 9.3 6.2 68 2.7 W 9 19 5 10 - - 0.0
04/03:30am 11.2 8.3 4.6 64 3.0 ESE 9 15 5 8 - - 0.0
04/03:00am 12.1 9.1 4.1 58 3.6 W 9 17 5 9 - - 0.0
04/02:30am 11.3 8.3 4.2 61 3.2 WSW 9 17 5 9 - - 0.0
04/02:00am 11.5 8.4 3.6 58 3.5 WSW 9 17 5 9 - - 0.0
04/01:30am 10.6 7.2 4.1 64 2.9 E 11 19 6 10 - - 0.0
04/01:00am 9.4 5.2 3.9 68 2.4 ESE 15 20 8 11 - - 0.0
04/12:30am 9.7 6.2 3.5 65 2.7 E 11 20 6 11 - - 0.0
04/12:00am 10.2 7.0 3.1 61 3.1 NNW 9 15 5 8 - - 0.0
 
Date/Time
EST
Temp
°C
App
Temp
°C
Dew
Point
Rel
Hum
%
Delta-T
°C
Wind Press
QNH
hPa
Press
MSL
hPa
Rain
since 9 am
mm
Dir
 
Spd
km/h
Gust
km/h
Spd
kts
Gust
kts
03/11:30pm 10.4 6.7 2.5 58 3.4 N 11 28 6 15 - - 0.0
03/11:00pm 10.0 5.9 2.5 59 3.2 NNW 13 22 7 12 - - 0.0
03/10:30pm 10.1 6.4 2.1 57 3.4 NW 11 20 6 11 - - 0.0
03/10:00pm 9.5 5.4 2.2 60 3.1 NW 13 26 7 14 - - 0.0
03/09:30pm 8.9 5.2 2.2 63 2.8 W 11 19 6 10 - - 0.0
03/09:00pm 9.0 4.9 2.1 62 2.9 WNW 13 37 7 20 - - 0.0
03/08:30pm 9.4 5.5 1.4 57 3.3 NW 11 20 6 11 - - 0.0
03/08:00pm 9.0 5.9 1.5 59 3.1 W 7 15 4 8 - - 0.0
03/07:30pm 9.2 6.3 1.2 57 3.3 W 6 13 3 7 - - 0.0
03/07:00pm 8.8 5.7 1.2 59 3.1 W 7 13 4 7 - - 0.0
03/06:30pm 8.9 5.8 1.4 59 3.1 NNW 7 17 4 9 - - 0.0
03/06:00pm 8.9 5.9 2.0 62 2.9 NW 7 24 4 13 - - 0.0
03/05:30pm 9.3 5.0 1.3 57 3.3 NW 13 22 7 12 - - 0.0
03/05:00pm 9.3 5.4 1.3 57 3.3 S 11 26 6 14 - - 0.0
03/04:30pm 9.7 6.7 2.1 59 3.2 WNW 7 13 4 7 - - 0.0
03/04:00pm 9.9 7.1 1.8 57 3.4 NNW 6 13 3 7 - - 0.0
03/03:30pm 10.4 4.8 1.0 52 3.9 NNW 20 32 11 17 - - 0.0
03/03:00pm 11.0 8.1 1.2 51 4.1 E 6 13 3 7 - - 0.0
03/02:30pm 10.4 4.8 1.0 52 3.9 W 20 33 11 18 - - 0.0
03/02:00pm 11.3 6.7 1.3 50 4.2 W 15 26 8 14 - - 0.0
03/01:30pm 11.5 6.9 1.3 49 4.3 NW 15 26 8 14 - - 0.0
03/01:00pm 11.1 7.2 1.4 51 4.1 W 11 17 6 9 - - 0.0
03/12:30pm 11.1 6.5 1.7 52 4.0 W 15 22 8 12 - - 0.0
03/12:00pm 10.7 6.6 2.0 55 3.7 W 13 19 7 10 - - 0.0
03/11:30am 9.9 4.9 1.5 56 3.5 W 17 24 9 13 - - 0.0
03/11:00am 9.5 6.8 2.7 62 2.9 WSW 6 15 3 8 - - 0.0
03/10:30am 7.5 5.0 3.8 77 1.6 SSE 6 7 3 4 - - 0.0
03/10:00am 5.0 3.0 2.3 83 1.1 NE 2 6 1 3 - - 0.0
03/09:30am 2.6 0.5 1.6 93 0.4 NE 2 6 1 3 - - 0.0
03/09:00am 0.6 -2.5 0.3 98 0.1 ENE 6 9 3 5 - - 0.2
03/08:30am -0.7 - - - - N 7 13 4 7 - - 0.2
03/08:00am -1.2 - - - - NNE 7 9 4 5 - - 0.2
03/07:30am -1.3 - - - - N 7 9 4 5 - - 0.2
03/07:00am -0.5 - - - - NE 7 11 4 6 - - 0.2
03/06:30am -0.8 - - - - NE 9 11 5 6 - - 0.2
03/06:00am -0.9 - - - - NNE 6 9 3 5 - - 0.2
03/05:30am -0.6 - - - - NNE 7 9 4 5 - - 0.2
03/05:00am -0.8 - - - - NNE 7 9 4 5 - - 0.2
03/04:30am -0.1 - - - - NE 7 9 4 5 - - 0.2
03/04:00am 0.2 - - - - NE 2 9 1 5 - - 0.2
03/03:30am 0.9 -2.4 0.4 96 0.2 NE 7 9 4 5 - - 0.2
03/03:00am 1.3 -1.3 0.8 96 0.2 NNE 4 13 2 7 - - 0.2
03/02:30am 1.4 -1.8 0.6 94 0.3 NNW 7 11 4 6 - - 0.2
03/02:00am 1.2 -2.1 0.4 94 0.3 NE 7 11 4 6 - - 0.2
03/01:30am 1.5 -1.5 1.0 96 0.2 NNE 6 11 3 6 - - 0.2
03/01:00am 1.5 -0.8 0.7 94 0.3 N 2 6 1 3 - - 0.2
03/12:30am 3.1 0.2 1.3 88 0.7 NNE 6 11 3 6 - - 0.2
03/12:00am 3.7 0.6 1.4 85 0.9 W 7 13 4 7 - - 0.2
 
Date/Time
EST
Temp
°C
App
Temp
°C
Dew
Point
Rel
Hum
%
Delta-T
°C
Wind Press
QNH
hPa
Press
MSL
hPa
Rain
since 9 am
mm
Dir
 
Spd
km/h
Gust
km/h
Spd
kts
Gust
kts
02/11:30pm 4.4 0.8 0.8 77 1.4 SW 9 17 5 9 - - 0.2

Other Formats:

Comma delimited format used in spreadsheet applications
http://www.bom.gov.au/fwo/IDT60801/IDT60801.95977.axf

JavaScript Object Notation format (JSON) in row-major order
http://www.bom.gov.au/fwo/IDT60801/IDT60801.95977.json